Time,TemperatureF,DewpointF,PressureIn,WindDirection,WindDirectionDegrees,WindSpeedMPH,WindSpeedGustMPH,Humidity,HourlyPrecipIn,Conditions,Clouds,dailyrainin,SoftwareType,DateUTC
2013-11-22 00:01:00,47.4,46.0,30.40,WSW,241,0.0,0.0,95,0.00,,BKN250,0.00,VWS V14.01,2013-11-22 05:01:00,
2013-11-22 00:11:00,47.1,45.5,30.40,WSW,241,0.0,0.0,94,0.00,,BKN250,0.00,VWS V14.01,2013-11-22 05:11:00,
2013-11-22 00:16:00,46.8,45.2,30.39,WSW,241,0.0,0.0,94,0.00,,BKN250,0.00,VWS V14.01,2013-11-22 05:16:00,
2013-11-22 00:21:00,46.6,45.2,30.39,WSW,241,0.0,1.0,95,0.00,,BKN250,0.00,VWS V14.01,2013-11-22 05:21:00,
2013-11-22 00:26:00,46.5,45.2,30.39,WSW,241,0.0,0.0,95,0.00,,BKN250,0.00,VWS V14.01,2013-11-22 05:26:00,
2013-11-22 00:31:00,46.5,45.2,30.39,WSW,242,0.0,1.0,95,0.00,,BKN250,0.00,VWS V14.01,2013-11-22 05:31:00,
2013-11-22 00:36:00,46.5,45.2,30.39,WSW,241,0.0,0.0,95,0.00,,BKN250,0.00,VWS V14.01,2013-11-22 05:36:00,
2013-11-22 00:41:00,46.5,45.2,30.39,WSW,241,0.0,0.0,95,0.00,,BKN250,0.00,VWS V14.01,2013-11-22 05:41:00,
2013-11-22 00:51:00,46.5,45.4,30.38,WSW,241,0.0,0.0,96,0.00,,BKN250,0.00,VWS V14.01,2013-11-22 05:51:00,
2013-11-22 00:56:00,46.6,45.5,30.38,WSW,242,0.0,0.0,96,0.00,,BKN250,0.00,VWS V14.01,2013-11-22 05:56:00,
2013-11-22 01:01:00,46.7,45.6,30.38,WSW,242,0.0,0.0,96,0.00,,BKN250,0.00,VWS V14.01,2013-11-22 06:01:00,
2013-11-22 01:11:00,46.9,45.8,30.37,WSW,241,0.0,0.0,96,0.00,,BKN250,0.00,VWS V14.01,2013-11-22 06:11:00,
2013-11-22 01:16:00,46.9,45.8,30.37,WSW,242,0.0,0.0,96,0.00,,BKN250,0.00,VWS V14.01,2013-11-22 06:16:00,
2013-11-22 01:21:00,47.0,45.9,30.38,WSW,241,0.0,1.0,96,0.00,,BKN250,0.00,VWS V14.01,2013-11-22 06:21:00,
2013-11-22 01:26:00,47.1,46.0,30.37,WSW,241,0.0,0.0,96,0.00,,BKN250,0.00,VWS V14.01,2013-11-22 06:26:00,
2013-11-22 01:31:00,47.2,46.1,30.37,WSW,241,0.0,0.0,96,0.00,,BKN250,0.00,VWS V14.01,2013-11-22 06:31:00,
2013-11-22 01:41:00,47.1,46.0,30.38,WSW,241,0.0,0.0,96,0.00,,BKN250,0.00,VWS V14.01,2013-11-22 06:41:00,
2013-11-22 01:46:00,47.2,46.1,30.37,WSW,241,0.0,0.0,96,0.00,,BKN250,0.00,VWS V14.01,2013-11-22 06:46:00,
2013-11-22 01:51:00,47.2,46.1,30.38,WSW,241,0.0,0.0,96,0.00,,BKN250,0.00,VWS V14.01,2013-11-22 06:51:00,
2013-11-22 02:01:00,47.3,46.2,30.38,WSW,241,0.0,0.0,96,0.00,,BKN250,0.00,VWS V14.01,2013-11-22 07:01:00,
2013-11-22 02:11:00,47.5,46.4,30.37,WSW,241,0.0,0.0,96,0.00,,BKN250,0.00,VWS V14.01,2013-11-22 07:11:00,
2013-11-22 02:16:00,47.5,46.4,30.37,WSW,241,0.0,0.0,96,0.00,,BKN250,0.00,VWS V14.01,2013-11-22 07:16:00,
2013-11-22 02:21:00,47.5,46.4,30.37,WSW,241,0.0,0.0,96,0.00,,BKN250,0.00,VWS V14.01,2013-11-22 07:21:00,
2013-11-22 02:26:00,47.6,46.5,30.37,WSW,241,0.0,0.0,96,0.00,,BKN250,0.00,VWS V14.01,2013-11-22 07:26:00,
2013-11-22 02:31:00,47.6,46.2,30.37,WSW,241,0.0,0.0,95,0.00,,BKN250,0.00,VWS V14.01,2013-11-22 07:31:00,
2013-11-22 02:36:00,47.6,46.2,30.37,WSW,241,0.0,0.0,95,0.00,,BKN250,0.00,VWS V14.01,2013-11-22 07:36:00,
2013-11-22 02:41:00,47.7,46.6,30.36,WSW,241,0.0,0.0,96,0.00,,BKN250,0.00,VWS V14.01,2013-11-22 07:41:00,
2013-11-22 02:46:00,47.8,46.7,30.36,WSW,242,0.0,0.0,96,0.00,,BKN250,0.00,VWS V14.01,2013-11-22 07:46:00,
2013-11-22 02:51:00,48.0,46.9,30.36,WSW,242,0.0,0.0,96,0.00,,BKN250,0.00,VWS V14.01,2013-11-22 07:51:00,
2013-11-22 03:01:00,48.2,46.8,30.36,WSW,241,0.0,0.0,95,0.00,,BKN055,0.00,VWS V14.01,2013-11-22 08:01:00,
2013-11-22 03:11:00,48.2,46.8,30.36,WSW,242,0.0,0.0,95,0.00,,BKN055,0.00,VWS V14.01,2013-11-22 08:11:00,
2013-11-22 03:16:00,48.1,46.7,30.35,WSW,241,0.0,0.0,95,0.00,,BKN055,0.00,VWS V14.01,2013-11-22 08:16:00,
2013-11-22 03:21:00,48.1,46.7,30.35,WSW,241,0.0,0.0,95,0.00,,BKN055,0.00,VWS V14.01,2013-11-22 08:21:00,
2013-11-22 03:26:00,48.2,46.8,30.35,WSW,242,0.0,0.0,95,0.00,,BKN055,0.00,VWS V14.01,2013-11-22 08:26:00,
2013-11-22 03:31:00,48.3,46.9,30.35,WSW,242,0.0,0.0,95,0.00,,BKN055,0.00,VWS V14.01,2013-11-22 08:31:00,
2013-11-22 03:36:00,48.4,47.0,30.35,WSW,241,0.0,0.0,95,0.00,,BKN055,0.00,VWS V14.01,2013-11-22 08:36:00,
2013-11-22 03:41:00,48.5,47.1,30.34,WSW,242,0.0,0.0,95,0.00,,BKN055,0.00,VWS V14.01,2013-11-22 08:41:00,
2013-11-22 03:46:00,48.5,47.1,30.34,WSW,241,0.0,0.0,95,0.00,,BKN055,0.00,VWS V14.01,2013-11-22 08:46:00,
2013-11-22 03:51:00,48.5,47.1,30.34,WSW,241,0.0,0.0,95,0.00,,BKN055,0.00,VWS V14.01,2013-11-22 08:51:00,
2013-11-22 03:56:00,48.6,47.2,30.34,WSW,241,0.0,0.0,95,0.00,,BKN060,0.00,VWS V14.01,2013-11-22 08:56:00,
2013-11-22 04:01:00,48.7,47.3,30.35,WSW,242,1.0,1.0,95,0.00,,BKN060,0.00,VWS V14.01,2013-11-22 09:01:00,
2013-11-22 04:11:00,49.0,47.6,30.34,WSW,241,0.0,0.0,95,0.00,,BKN060,0.00,VWS V14.01,2013-11-22 09:11:00,
2013-11-22 04:16:00,49.1,47.7,30.34,WSW,242,0.0,0.0,95,0.00,,BKN060,0.00,VWS V14.01,2013-11-22 09:16:00,
2013-11-22 04:26:00,49.3,47.9,30.34,WSW,241,0.0,0.0,95,0.00,,BKN060,0.00,VWS V14.01,2013-11-22 09:26:00,
2013-11-22 04:31:00,49.4,47.8,30.34,WSW,241,0.0,0.0,94,0.00,,BKN060,0.00,VWS V14.01,2013-11-22 09:31:00,
2013-11-22 04:36:00,49.5,47.8,30.34,WSW,241,0.0,0.0,94,0.00,,BKN060,0.00,VWS V14.01,2013-11-22 09:36:00,
2013-11-22 04:41:00,49.5,47.8,30.34,ESE,115,0.0,1.0,94,0.00,,BKN060,0.00,VWS V14.01,2013-11-22 09:41:00,
2013-11-22 04:46:00,49.6,48.0,30.34,ESE,115,0.0,1.0,94,0.00,,BKN060,0.00,VWS V14.01,2013-11-22 09:46:00,
2013-11-22 04:51:00,49.7,48.0,30.34,ESE,115,0.0,0.0,94,0.00,,BKN060,0.00,VWS V14.01,2013-11-22 09:51:00,
2013-11-22 04:56:00,49.7,48.0,30.34,ESE,115,0.0,0.0,94,0.00,,BKN065,0.00,VWS V14.01,2013-11-22 09:56:00,
2013-11-22 05:01:00,49.7,48.0,30.34,ESE,115,0.0,0.0,94,0.00,,BKN065,0.00,VWS V14.01,2013-11-22 10:01:00,
2013-11-22 05:11:00,49.7,48.0,30.33,ESE,115,0.0,0.0,94,0.00,,BKN065,0.00,VWS V14.01,2013-11-22 10:11:00,
2013-11-22 05:16:00,49.6,48.0,30.34,ESE,115,0.0,0.0,94,0.00,,BKN065,0.00,VWS V14.01,2013-11-22 10:16:00,
2013-11-22 05:21:00,49.5,47.8,30.33,ESE,115,0.0,0.0,94,0.00,,BKN065,0.00,VWS V14.01,2013-11-22 10:21:00,
2013-11-22 05:26:00,49.4,47.5,30.33,ESE,115,0.0,0.0,93,0.00,,BKN065,0.00,VWS V14.01,2013-11-22 10:26:00,
2013-11-22 05:31:00,49.1,47.2,30.32,ESE,115,0.0,0.0,93,0.00,,BKN065,0.00,VWS V14.01,2013-11-22 10:31:00,
2013-11-22 05:36:00,48.8,47.2,30.32,ESE,115,0.0,0.0,94,0.00,,BKN065,0.00,VWS V14.01,2013-11-22 10:36:00,
2013-11-22 05:41:00,48.6,47.0,30.32,ESE,115,0.0,0.0,94,0.00,,BKN065,0.00,VWS V14.01,2013-11-22 10:41:00,
2013-11-22 05:51:00,48.3,46.7,30.33,ESE,115,0.0,0.0,94,0.00,,BKN065,0.00,VWS V14.01,2013-11-22 10:51:00,
2013-11-22 05:56:00,48.3,46.9,30.33,ESE,115,0.0,0.0,95,0.00,,SCT080,0.00,VWS V14.01,2013-11-22 10:56:00,
2013-11-22 06:01:00,48.3,46.9,30.33,ESE,115,0.0,0.0,95,0.00,,SCT080,0.00,VWS V14.01,2013-11-22 11:01:00,
2013-11-22 06:11:00,48.2,46.8,30.33,ESE,115,0.0,0.0,95,0.00,,SCT080,0.00,VWS V14.01,2013-11-22 11:11:00,
2013-11-22 06:16:00,48.2,46.8,30.33,ESE,115,0.0,0.0,95,0.00,,SCT080,0.00,VWS V14.01,2013-11-22 11:16:00,
2013-11-22 06:21:00,48.1,46.7,30.33,ESE,115,0.0,0.0,95,0.00,,SCT080,0.00,VWS V14.01,2013-11-22 11:21:00,
2013-11-22 06:26:00,48.1,46.7,30.33,ESE,115,0.0,0.0,95,0.00,,SCT080,0.00,VWS V14.01,2013-11-22 11:26:00,
2013-11-22 06:31:00,47.9,46.5,30.33,ESE,115,0.0,0.0,95,0.00,,SCT080,0.00,VWS V14.01,2013-11-22 11:31:00,
2013-11-22 06:36:00,47.8,46.4,30.33,ESE,115,0.0,0.0,95,0.00,,SCT080,0.00,VWS V14.01,2013-11-22 11:36:00,
2013-11-22 06:41:00,47.8,46.4,30.33,ESE,115,0.0,0.0,95,0.00,,SCT080,0.00,VWS V14.01,2013-11-22 11:41:00,
2013-11-22 06:46:00,47.9,46.8,30.33,ESE,115,0.0,0.0,96,0.00,,SCT080,0.00,VWS V14.01,2013-11-22 11:46:00,
2013-11-22 06:51:00,48.0,46.9,30.32,ESE,115,0.0,0.0,96,0.00,,SCT080,0.00,VWS V14.01,2013-11-22 11:51:00,
2013-11-22 06:56:00,47.9,46.8,30.32,ESE,115,0.0,0.0,96,0.00,,BKN250,0.00,VWS V14.01,2013-11-22 11:56:00,
2013-11-22 07:01:00,47.9,46.8,30.32,ESE,115,0.0,0.0,96,0.00,,BKN250,0.00,VWS V14.01,2013-11-22 12:01:00,
2013-11-22 07:11:00,48.1,47.0,30.31,ESE,115,0.0,0.0,96,0.00,,BKN250,0.00,VWS V14.01,2013-11-22 12:11:00,
2013-11-22 07:16:00,48.2,47.1,30.31,ESE,121,0.0,1.0,96,0.00,,BKN250,0.00,VWS V14.01,2013-11-22 12:16:00,
2013-11-22 07:21:00,48.4,47.3,30.32,SW,216,0.0,1.0,96,0.00,,BKN250,0.00,VWS V14.01,2013-11-22 12:21:00,
2013-11-22 07:26:00,48.5,47.7,30.31,SW,216,0.0,0.0,97,0.00,,BKN250,0.00,VWS V14.01,2013-11-22 12:26:00,
2013-11-22 07:31:00,48.6,47.8,30.31,SW,217,1.0,1.0,97,0.00,,BKN250,0.00,VWS V14.01,2013-11-22 12:31:00,
2013-11-22 07:36:00,48.8,48.0,30.31,SW,217,0.0,1.0,97,0.00,,BKN250,0.00,VWS V14.01,2013-11-22 12:36:00,
2013-11-22 07:41:00,48.9,48.1,30.31,SW,217,0.0,1.0,97,0.00,,BKN250,0.00,VWS V14.01,2013-11-22 12:41:00,
2013-11-22 07:46:00,48.9,48.1,30.31,SW,217,0.0,0.0,97,0.00,,BKN250,0.00,VWS V14.01,2013-11-22 12:46:00,
2013-11-22 07:51:00,49.1,48.3,30.31,SW,217,0.0,0.0,97,0.00,,BKN250,0.00,VWS V14.01,2013-11-22 12:51:00,
2013-11-22 07:56:00,49.3,48.5,30.31,SW,217,0.0,0.0,97,0.00,,SCT250,0.00,VWS V14.01,2013-11-22 12:56:00,
2013-11-22 08:01:00,49.4,48.6,30.31,SW,216,0.0,0.0,97,0.00,,SCT250,0.00,VWS V14.01,2013-11-22 13:01:00,
2013-11-22 08:11:00,49.8,49.0,30.31,SW,216,0.0,0.0,97,0.00,,SCT250,0.00,VWS V14.01,2013-11-22 13:11:00,
2013-11-22 08:16:00,50.0,49.5,30.31,SW,216,0.0,0.0,98,0.00,,SCT250,0.00,VWS V14.01,2013-11-22 13:16:00,
2013-11-22 08:21:00,50.2,49.7,30.31,SW,216,0.0,0.0,98,0.00,,SCT250,0.00,VWS V14.01,2013-11-22 13:21:00,
2013-11-22 08:26:00,50.5,50.0,30.32,SW,217,0.0,1.0,98,0.00,,SCT250,0.00,VWS V14.01,2013-11-22 13:26:00,
2013-11-22 08:31:00,50.8,50.3,30.32,SW,217,0.0,1.0,98,0.00,,SCT250,0.00,VWS V14.01,2013-11-22 13:31:00,
2013-11-22 08:36:00,50.9,50.4,30.32,SW,217,0.0,1.0,98,0.00,,SCT250,0.00,VWS V14.01,2013-11-22 13:36:00,
2013-11-22 08:41:00,51.2,50.7,30.32,SW,217,0.0,0.0,98,0.00,,SCT250,0.00,VWS V14.01,2013-11-22 13:41:00,
2013-11-22 08:46:00,51.4,50.9,30.32,SW,217,0.0,0.0,98,0.00,,SCT250,0.00,VWS V14.01,2013-11-22 13:46:00,
2013-11-22 08:51:00,51.6,51.1,30.31,SW,217,0.0,0.0,98,0.00,,SCT250,0.00,VWS V14.01,2013-11-22 13:51:00,
2013-11-22 08:56:00,51.8,51.3,30.32,SW,217,0.0,0.0,98,0.00,,BKN250,0.00,VWS V14.01,2013-11-22 13:56:00,
2013-11-22 09:01:00,52.4,51.8,30.31,SW,217,0.0,0.0,98,0.00,,BKN250,0.00,VWS V14.01,2013-11-22 14:01:00,
2013-11-22 09:11:00,53.3,52.5,30.31,WSW,248,0.0,1.0,97,0.00,,BKN250,0.00,VWS V14.01,2013-11-22 14:11:00,
2013-11-22 09:16:00,53.9,53.1,30.31,WSW,255,0.0,1.0,97,0.00,,BKN250,0.00,VWS V14.01,2013-11-22 14:16:00,
2013-11-22 09:21:00,54.7,53.3,30.31,WSW,246,0.0,1.0,95,0.00,,BKN250,0.00,VWS V14.01,2013-11-22 14:21:00,
2013-11-22 09:26:00,55.4,53.4,30.31,West,265,0.0,0.0,93,0.00,,BKN250,0.00,VWS V14.01,2013-11-22 14:26:00,
2013-11-22 09:31:00,56.5,53.6,30.31,SW,233,0.0,1.0,90,0.00,,BKN250,0.00,VWS V14.01,2013-11-22 14:31:00,
2013-11-22 09:36:00,57.2,54.0,30.31,SW,222,0.0,1.0,89,0.00,,BKN250,0.00,VWS V14.01,2013-11-22 14:36:00,
2013-11-22 09:41:00,57.8,54.3,30.31,West,272,1.0,2.0,88,0.00,,BKN250,0.00,VWS V14.01,2013-11-22 14:41:00,
2013-11-22 09:46:00,58.0,54.2,30.31,WSW,249,0.0,4.0,87,0.00,,BKN250,0.00,VWS V14.01,2013-11-22 14:46:00,
2013-11-22 09:51:00,58.6,54.8,30.31,West,259,1.0,2.0,87,0.00,,BKN250,0.00,VWS V14.01,2013-11-22 14:51:00,
2013-11-22 09:56:00,58.7,54.5,30.30,West,262,1.0,2.0,86,0.00,,BKN250,0.00,VWS V14.01,2013-11-22 14:56:00,
2013-11-22 10:01:00,58.7,54.5,30.31,West,259,1.0,3.0,86,0.00,,BKN250,0.00,VWS V14.01,2013-11-22 15:01:00,
2013-11-22 10:11:00,59.7,55.2,30.31,WSW,248,0.0,2.0,85,0.00,,BKN250,0.00,VWS V14.01,2013-11-22 15:11:00,
2013-11-22 10:16:00,60.0,55.5,30.30,WSW,240,1.0,3.0,85,0.00,,BKN250,0.00,VWS V14.01,2013-11-22 15:16:00,
2013-11-22 10:21:00,60.5,56.0,30.31,West,266,1.0,2.0,85,0.00,,BKN250,0.00,VWS V14.01,2013-11-22 15:21:00,
2013-11-22 10:26:00,60.6,55.8,30.31,WSW,248,0.0,3.0,84,0.00,,BKN250,0.00,VWS V14.01,2013-11-22 15:26:00,
2013-11-22 10:31:00,60.9,56.0,30.30,WSW,244,0.0,1.0,84,0.00,,BKN250,0.00,VWS V14.01,2013-11-22 15:31:00,
2013-11-22 10:36:00,61.2,56.0,30.30,West,259,0.0,1.0,83,0.00,,BKN250,0.00,VWS V14.01,2013-11-22 15:36:00,
2013-11-22 10:46:00,62.7,56.8,30.29,SSE,147,1.0,1.0,81,0.00,,BKN250,0.00,VWS V14.01,2013-11-22 15:46:00,
2013-11-22 10:51:00,63.5,57.2,30.29,WNW,283,2.0,2.0,80,0.00,,BKN250,0.00,VWS V14.01,2013-11-22 15:51:00,
2013-11-22 10:56:00,63.9,57.3,30.28,SE,133,1.0,2.0,79,0.00,,BKN250,0.00,VWS V14.01,2013-11-22 15:56:00,
2013-11-22 11:01:00,64.6,58.0,30.28,WSW,250,1.0,2.0,79,0.00,,BKN250,0.00,VWS V14.01,2013-11-22 16:01:00,
2013-11-22 11:11:00,65.5,57.7,30.27,West,259,2.0,3.0,76,0.00,,BKN250,0.00,VWS V14.01,2013-11-22 16:11:00,
2013-11-22 11:16:00,65.2,57.8,30.27,West,274,1.0,4.0,77,0.00,,BKN250,0.00,VWS V14.01,2013-11-22 16:16:00,
2013-11-22 11:21:00,65.4,58.0,30.27,South,189,0.0,4.0,77,0.00,,BKN250,0.00,VWS V14.01,2013-11-22 16:21:00,
2013-11-22 11:31:00,65.7,58.3,30.27,SSW,212,2.0,4.0,77,0.00,,BKN250,0.00,VWS V14.01,2013-11-22 16:31:00,
2013-11-22 11:36:00,65.4,58.0,30.26,WNW,286,2.0,3.0,77,0.00,,BKN250,0.00,VWS V14.01,2013-11-22 16:36:00,
2013-11-22 11:41:00,65.4,58.0,30.26,WSW,245,2.0,3.0,77,0.00,,BKN250,0.00,VWS V14.01,2013-11-22 16:41:00,
2013-11-22 11:46:00,65.3,57.9,30.26,WSW,244,1.0,2.0,77,0.00,,BKN250,0.00,VWS V14.01,2013-11-22 16:46:00,
2013-11-22 11:51:00,65.4,58.4,30.26,WSW,244,0.0,1.0,78,0.00,,BKN250,0.00,VWS V14.01,2013-11-22 16:51:00,
2013-11-22 11:56:00,65.6,58.6,30.25,West,273,0.0,2.0,78,0.00,,OVC065,0.00,VWS V14.01,2013-11-22 16:56:00,
2013-11-22 12:01:00,65.8,58.8,30.25,WSW,254,0.0,2.0,78,0.00,,OVC065,0.00,VWS V14.01,2013-11-22 17:01:00,
2013-11-22 12:11:00,66.0,58.6,30.24,WSW,252,0.0,1.0,77,0.00,,OVC065,0.00,VWS V14.01,2013-11-22 17:11:00,
2013-11-22 12:16:00,66.2,58.8,30.24,WSW,257,0.0,1.0,77,0.00,,OVC065,0.00,VWS V14.01,2013-11-22 17:16:00,
2013-11-22 12:21:00,66.6,59.2,30.24,WSW,258,3.0,3.0,77,0.00,,OVC065,0.00,VWS V14.01,2013-11-22 17:21:00,
2013-11-22 12:26:00,66.3,58.5,30.23,West,261,0.0,4.0,76,0.00,,OVC065,0.00,VWS V14.01,2013-11-22 17:26:00,
2013-11-22 12:31:00,66.3,58.5,30.23,WSW,253,3.0,4.0,76,0.00,,OVC065,0.00,VWS V14.01,2013-11-22 17:31:00,
2013-11-22 12:36:00,66.3,58.5,30.23,WSW,243,2.0,3.0,76,0.00,,OVC065,0.00,VWS V14.01,2013-11-22 17:36:00,
2013-11-22 12:41:00,66.5,59.1,30.23,West,270,3.0,3.0,77,0.00,,BKN065,0.00,VWS V14.01,2013-11-22 17:41:00,
2013-11-22 12:46:00,66.6,58.8,30.23,West,281,0.0,3.0,76,0.00,,BKN065,0.00,VWS V14.01,2013-11-22 17:46:00,
2013-11-22 12:51:00,66.8,59.0,30.22,West,281,0.0,0.0,76,0.00,,BKN065,0.00,VWS V14.01,2013-11-22 17:51:00,
2013-11-22 12:56:00,67.1,59.3,30.22,West,262,2.0,4.0,76,0.00,,OVC200,0.00,VWS V14.01,2013-11-22 17:56:00,
2013-11-22 13:01:00,67.2,59.4,30.22,West,280,4.0,4.0,76,0.00,,OVC200,0.00,VWS V14.01,2013-11-22 18:01:00,
2013-11-22 13:11:00,67.6,59.4,30.21,WSW,258,1.0,4.0,75,0.00,,OVC200,0.00,VWS V14.01,2013-11-22 18:11:00,
2013-11-22 13:16:00,67.8,59.2,30.21,West,261,2.0,6.0,74,0.00,,OVC200,0.00,VWS V14.01,2013-11-22 18:16:00,
2013-11-22 13:21:00,68.2,59.6,30.21,West,264,4.0,6.0,74,0.00,,OVC200,0.00,VWS V14.01,2013-11-22 18:21:00,
2013-11-22 13:26:00,68.4,59.4,30.20,West,264,1.0,5.0,73,0.00,,OVC200,0.00,VWS V14.01,2013-11-22 18:26:00,
2013-11-22 13:31:00,69.0,60.0,30.20,WSW,239,1.0,5.0,73,0.00,,OVC200,0.00,VWS V14.01,2013-11-22 18:31:00,
2013-11-22 13:36:00,69.6,60.2,30.20,WNW,300,1.0,8.0,72,0.00,,OVC200,0.00,VWS V14.01,2013-11-22 18:36:00,
2013-11-22 13:41:00,70.0,60.2,30.19,West,260,3.0,6.0,71,0.00,,OVC200,0.00,VWS V14.01,2013-11-22 18:41:00,
2013-11-22 13:46:00,70.3,60.5,30.19,NW,314,2.0,5.0,71,0.00,,OVC200,0.00,VWS V14.01,2013-11-22 18:46:00,
2013-11-22 13:51:00,70.3,60.1,30.19,WNW,288,5.0,7.0,70,0.00,,OVC200,0.00,VWS V14.01,2013-11-22 18:51:00,
2013-11-22 13:56:00,70.4,60.2,30.19,SSE,158,3.0,7.0,70,0.00,,BKN250,0.00,VWS V14.01,2013-11-22 18:56:00,
2013-11-22 14:01:00,70.8,60.5,30.18,WSW,245,2.0,5.0,70,0.00,,BKN250,0.00,VWS V14.01,2013-11-22 19:01:00,
2013-11-22 14:11:00,70.6,60.3,30.18,SW,224,1.0,5.0,70,0.00,,BKN250,0.00,VWS V14.01,2013-11-22 19:11:00,
2013-11-22 14:16:00,70.5,60.3,30.17,WSW,253,2.0,8.0,70,0.00,,BKN250,0.00,VWS V14.01,2013-11-22 19:16:00,
2013-11-22 14:21:00,70.6,60.3,30.17,West,261,3.0,7.0,70,0.00,,BKN250,0.00,VWS V14.01,2013-11-22 19:21:00,
2013-11-22 14:26:00,70.8,60.5,30.17,SW,234,2.0,3.0,70,0.00,,BKN250,0.00,VWS V14.01,2013-11-22 19:26:00,
2013-11-22 14:31:00,71.2,60.5,30.17,SW,214,1.0,6.0,69,0.00,,BKN250,0.00,VWS V14.01,2013-11-22 19:31:00,
2013-11-22 14:36:00,71.2,60.5,30.17,West,271,4.0,9.0,69,0.00,,BKN250,0.00,VWS V14.01,2013-11-22 19:36:00,
2013-11-22 14:41:00,71.1,60.4,30.17,West,259,3.0,9.0,69,0.00,,BKN250,0.00,VWS V14.01,2013-11-22 19:41:00,
2013-11-22 14:46:00,71.3,60.2,30.17,SSW,195,1.0,7.0,68,0.00,,BKN250,0.00,VWS V14.01,2013-11-22 19:46:00,
2013-11-22 14:51:00,71.2,60.1,30.17,SW,220,2.0,6.0,68,0.00,,BKN250,0.00,VWS V14.01,2013-11-22 19:51:00,
2013-11-22 14:56:00,71.4,60.3,30.16,SW,222,0.0,7.0,68,0.00,,BKN250,0.00,VWS V14.01,2013-11-22 19:56:00,
2013-11-22 15:01:00,71.4,60.3,30.16,WSW,258,4.0,8.0,68,0.00,,BKN250,0.00,VWS V14.01,2013-11-22 20:01:00,
2013-11-22 15:11:00,71.3,60.2,30.16,WSW,247,3.0,6.0,68,0.00,,BKN250,0.00,VWS V14.01,2013-11-22 20:11:00,
2013-11-22 15:16:00,71.4,60.3,30.15,WNW,288,2.0,6.0,68,0.00,,BKN250,0.00,VWS V14.01,2013-11-22 20:16:00,
2013-11-22 15:21:00,71.0,60.3,30.15,West,271,1.0,6.0,69,0.00,,BKN250,0.00,VWS V14.01,2013-11-22 20:21:00,
2013-11-22 15:26:00,70.8,60.1,30.16,WSW,257,4.0,7.0,69,0.00,,BKN250,0.00,VWS V14.01,2013-11-22 20:26:00,
2013-11-22 15:31:00,70.8,60.1,30.15,West,261,4.0,6.0,69,0.00,,BKN250,0.00,VWS V14.01,2013-11-22 20:31:00,
2013-11-22 15:36:00,70.7,60.0,30.15,SE,143,1.0,9.0,69,0.00,,BKN250,0.00,VWS V14.01,2013-11-22 20:36:00,
2013-11-22 15:41:00,70.8,60.1,30.15,SW,233,2.0,5.0,69,0.00,,BKN250,0.00,VWS V14.01,2013-11-22 20:41:00,
2013-11-22 15:46:00,70.7,60.0,30.15,West,274,1.0,6.0,69,0.00,,BKN250,0.00,VWS V14.01,2013-11-22 20:46:00,
2013-11-22 15:51:00,70.6,60.0,30.15,WSW,252,2.0,7.0,69,0.00,,BKN250,0.00,VWS V14.01,2013-11-22 20:51:00,
2013-11-22 15:56:00,70.5,60.3,30.15,WSW,253,5.0,8.0,70,0.00,,BKN250,0.00,VWS V14.01,2013-11-22 20:56:00,
2013-11-22 16:01:00,70.4,60.2,30.15,WSW,249,3.0,6.0,70,0.00,,BKN250,0.00,VWS V14.01,2013-11-22 21:01:00,
2013-11-22 16:11:00,70.4,60.6,30.15,WSW,253,2.0,6.0,71,0.00,,BKN250,0.00,VWS V14.01,2013-11-22 21:11:00,
2013-11-22 16:16:00,70.3,60.5,30.15,West,269,2.0,4.0,71,0.00,,BKN250,0.00,VWS V14.01,2013-11-22 21:16:00,
2013-11-22 16:21:00,70.3,60.9,30.15,WSW,258,2.0,5.0,72,0.00,,BKN250,0.00,VWS V14.01,2013-11-22 21:21:00,
2013-11-22 16:26:00,70.1,60.7,30.15,SW,236,4.0,5.0,72,0.00,,BKN250,0.00,VWS V14.01,2013-11-22 21:26:00,
2013-11-22 16:31:00,70.1,60.7,30.15,WSW,255,2.0,5.0,72,0.00,,BKN250,0.00,VWS V14.01,2013-11-22 21:31:00,
2013-11-22 16:36:00,69.9,60.9,30.15,WNW,290,3.0,5.0,73,0.00,,BKN250,0.00,VWS V14.01,2013-11-22 21:36:00,
2013-11-22 16:41:00,69.8,60.8,30.14,WSW,245,1.0,4.0,73,0.00,,BKN250,0.00,VWS V14.01,2013-11-22 21:41:00,
2013-11-22 16:46:00,69.7,60.7,30.14,SW,219,1.0,5.0,73,0.00,,BKN250,0.00,VWS V14.01,2013-11-22 21:46:00,
2013-11-22 16:51:00,69.6,61.0,30.14,WSW,250,2.0,6.0,74,0.00,,BKN250,0.00,VWS V14.01,2013-11-22 21:51:00,
2013-11-22 16:56:00,69.5,60.9,30.14,WNW,285,3.0,6.0,74,0.00,,BKN250,0.00,VWS V14.01,2013-11-22 21:56:00,
2013-11-22 17:01:00,69.3,61.0,30.13,SW,231,0.0,5.0,75,0.00,,BKN250,0.00,VWS V14.01,2013-11-22 22:01:00,
2013-11-22 17:11:00,68.9,60.7,30.13,ESE,119,1.0,4.0,75,0.00,,BKN250,0.00,VWS V14.01,2013-11-22 22:11:00,
2013-11-22 17:16:00,68.7,60.8,30.13,SSE,153,0.0,4.0,76,0.00,,BKN250,0.00,VWS V14.01,2013-11-22 22:16:00,
2013-11-22 17:21:00,68.6,60.7,30.13,West,262,2.0,5.0,76,0.00,,BKN250,0.00,VWS V14.01,2013-11-22 22:21:00,
2013-11-22 17:26:00,68.5,61.0,30.13,WSW,241,1.0,6.0,77,0.00,,BKN250,0.00,VWS V14.01,2013-11-22 22:26:00,
2013-11-22 17:31:00,68.4,60.9,30.13,SSW,213,0.0,3.0,77,0.00,,BKN250,0.00,VWS V14.01,2013-11-22 22:31:00,
2013-11-22 17:36:00,68.3,60.8,30.12,SW,235,2.0,3.0,77,0.00,,BKN250,0.00,VWS V14.01,2013-11-22 22:36:00,
2013-11-22 17:41:00,68.3,61.2,30.13,West,261,1.0,4.0,78,0.00,,BKN250,0.00,VWS V14.01,2013-11-22 22:41:00,
2013-11-22 17:46:00,68.2,61.1,30.12,WSW,252,1.0,3.0,78,0.00,,BKN250,0.00,VWS V14.01,2013-11-22 22:46:00,
2013-11-22 17:51:00,68.1,61.0,30.12,WSW,251,2.0,7.0,78,0.00,,BKN250,0.00,VWS V14.01,2013-11-22 22:51:00,
2013-11-22 17:56:00,68.1,61.0,30.12,WSW,256,1.0,3.0,78,0.00,,BKN250,0.00,VWS V14.01,2013-11-22 22:56:00,
2013-11-22 18:01:00,68.0,60.9,30.12,WSW,257,1.0,4.0,78,0.00,,BKN250,0.00,VWS V14.01,2013-11-22 23:01:00,
2013-11-22 18:11:00,67.9,61.2,30.12,West,269,0.0,2.0,79,0.00,,BKN250,0.00,VWS V14.01,2013-11-22 23:11:00,
2013-11-22 18:16:00,67.9,61.2,30.12,WSW,240,2.0,5.0,79,0.00,,BKN250,0.00,VWS V14.01,2013-11-22 23:16:00,
2013-11-22 18:21:00,67.9,61.2,30.12,SW,231,3.0,4.0,79,0.00,,BKN250,0.00,VWS V14.01,2013-11-22 23:21:00,
2013-11-22 18:26:00,67.9,60.8,30.12,WNW,290,3.0,5.0,78,0.00,,BKN250,0.00,VWS V14.01,2013-11-22 23:26:00,
2013-11-22 18:31:00,67.9,60.4,30.12,West,269,4.0,7.0,77,0.00,,BKN250,0.00,VWS V14.01,2013-11-22 23:31:00,
2013-11-22 18:36:00,67.9,60.4,30.12,WSW,255,2.0,5.0,77,0.00,,BKN250,0.00,VWS V14.01,2013-11-22 23:36:00,
2013-11-22 18:41:00,67.9,60.4,30.12,WSW,251,2.0,5.0,77,0.00,,BKN250,0.00,VWS V14.01,2013-11-22 23:41:00,
2013-11-22 18:46:00,67.9,60.4,30.12,SW,216,1.0,3.0,77,0.00,,BKN250,0.00,VWS V14.01,2013-11-22 23:46:00,
2013-11-22 18:51:00,67.8,60.3,30.12,West,273,4.0,6.0,77,0.00,,BKN250,0.00,VWS V14.01,2013-11-22 23:51:00,
2013-11-22 18:56:00,67.7,60.2,30.11,WSW,239,3.0,5.0,77,0.00,,BKN250,0.00,VWS V14.01,2013-11-22 23:56:00,
2013-11-22 19:01:00,67.7,59.9,30.11,WSW,255,2.0,5.0,76,0.00,,BKN250,0.00,VWS V14.01,2013-11-23 00:01:00,
2013-11-22 19:11:00,67.6,59.8,30.12,SE,129,1.0,3.0,76,0.00,,BKN250,0.00,VWS V14.01,2013-11-23 00:11:00,
2013-11-22 19:16:00,67.5,59.7,30.11,West,259,1.0,6.0,76,0.00,,BKN250,0.00,VWS V14.01,2013-11-23 00:16:00,
2013-11-22 19:21:00,67.5,59.7,30.11,WSW,258,3.0,5.0,76,0.00,,BKN250,0.00,VWS V14.01,2013-11-23 00:21:00,
2013-11-22 19:26:00,67.5,59.7,30.11,South,190,0.0,4.0,76,0.00,,BKN250,0.00,VWS V14.01,2013-11-23 00:26:00,
2013-11-22 19:31:00,67.4,59.6,30.11,WNW,291,3.0,4.0,76,0.00,,BKN250,0.00,VWS V14.01,2013-11-23 00:31:00,
2013-11-22 19:36:00,67.5,59.7,30.10,WSW,243,3.0,8.0,76,0.00,,BKN250,0.00,VWS V14.01,2013-11-23 00:36:00,
2013-11-22 19:41:00,67.4,59.6,30.11,SE,146,2.0,4.0,76,0.00,,BKN250,0.00,VWS V14.01,2013-11-23 00:41:00,
2013-11-22 19:46:00,67.3,59.8,30.11,WNW,289,2.0,5.0,77,0.00,,BKN250,0.00,VWS V14.01,2013-11-23 00:46:00,
2013-11-22 19:51:00,67.3,59.8,30.11,WSW,248,2.0,5.0,77,0.00,,BKN250,0.00,VWS V14.01,2013-11-23 00:51:00,
2013-11-22 19:56:00,67.2,59.8,30.11,SW,223,1.0,3.0,77,0.00,,OVC120,0.00,VWS V14.01,2013-11-23 00:56:00,
2013-11-22 20:01:00,67.1,59.7,30.11,WSW,251,2.0,3.0,77,0.00,,OVC120,0.00,VWS V14.01,2013-11-23 01:01:00,
2013-11-22 20:11:00,67.0,59.9,30.11,WSW,240,1.0,2.0,78,0.00,,OVC120,0.00,VWS V14.01,2013-11-23 01:11:00,
2013-11-22 20:16:00,66.9,59.8,30.11,WNW,282,0.0,3.0,78,0.00,,OVC120,0.00,VWS V14.01,2013-11-23 01:16:00,
2013-11-22 20:21:00,66.9,59.8,30.10,West,279,1.0,2.0,78,0.00,,OVC120,0.00,VWS V14.01,2013-11-23 01:21:00,
2013-11-22 20:31:00,66.8,59.7,30.10,SSE,150,0.0,2.0,78,0.00,,OVC120,0.00,VWS V14.01,2013-11-23 01:31:00,
2013-11-22 20:36:00,66.7,60.0,30.10,SW,225,0.0,1.0,79,0.00,,OVC120,0.00,VWS V14.01,2013-11-23 01:36:00,
2013-11-22 20:41:00,66.6,59.9,30.10,South,171,0.0,2.0,79,0.00,,OVC120,0.00,VWS V14.01,2013-11-23 01:41:00,
2013-11-22 20:46:00,66.5,59.8,30.09,ESE,120,0.0,1.0,79,0.00,,OVC120,0.00,VWS V14.01,2013-11-23 01:46:00,
2013-11-22 20:51:00,66.5,60.2,30.09,SSE,153,0.0,2.0,80,0.00,,OVC120,0.00,VWS V14.01,2013-11-23 01:51:00,
2013-11-22 20:56:00,66.4,60.0,30.09,WSW,243,1.0,1.0,80,0.00,,-RA,0.00,VWS V14.01,2013-11-23 01:56:00,
2013-11-22 21:01:00,66.3,60.0,30.09,SSW,205,0.0,2.0,80,0.00,,-RA,0.00,VWS V14.01,2013-11-23 02:01:00,
2013-11-22 21:11:00,66.1,60.1,30.09,WNW,299,1.0,2.0,81,0.00,,-RA,0.00,VWS V14.01,2013-11-23 02:11:00,
2013-11-22 21:21:00,65.7,60.4,30.10,South,176,0.0,0.0,83,0.00,,-RA,0.00,VWS V14.01,2013-11-23 02:21:00,
2013-11-22 21:26:00,65.4,60.1,30.09,East,96,1.0,1.0,83,0.00,,-RA,0.00,VWS V14.01,2013-11-23 02:26:00,
2013-11-22 21:31:00,65.2,60.2,30.09,ESE,118,0.0,2.0,84,0.00,,-RA,0.00,VWS V14.01,2013-11-23 02:31:00,
2013-11-22 21:36:00,65.0,60.4,30.09,SSE,158,0.0,2.0,85,0.00,,-RA,0.00,VWS V14.01,2013-11-23 02:36:00,
2013-11-22 21:41:00,64.8,60.2,30.09,ESE,114,0.0,1.0,85,0.00,,-RA,0.00,VWS V14.01,2013-11-23 02:41:00,
2013-11-22 21:46:00,64.7,60.4,30.09,ESE,115,0.0,1.0,86,0.00,,-RA,0.00,VWS V14.01,2013-11-23 02:46:00,
2013-11-22 21:51:00,64.5,60.2,30.09,ESE,121,0.0,1.0,86,0.00,,-RA,0.00,VWS V14.01,2013-11-23 02:51:00,
2013-11-22 21:56:00,64.4,60.5,30.09,SE,125,0.0,1.0,87,0.00,,-RA,0.00,VWS V14.01,2013-11-23 02:56:00,
2013-11-22 22:01:00,64.3,60.3,30.09,SSE,163,0.0,2.0,87,0.00,,-RA,0.00,VWS V14.01,2013-11-23 03:01:00,
2013-11-22 22:11:00,64.3,60.7,30.09,SSE,155,0.0,0.0,88,0.00,,-RA,0.00,VWS V14.01,2013-11-23 03:11:00,
2013-11-22 22:16:00,64.2,60.6,30.09,SSE,155,0.0,0.0,88,0.00,,-RA,0.00,VWS V14.01,2013-11-23 03:16:00,
2013-11-22 22:21:00,64.0,60.4,30.09,SSE,155,0.0,0.0,88,0.00,,-RA,0.00,VWS V14.01,2013-11-23 03:21:00,
2013-11-22 22:26:00,63.8,60.5,30.09,SSE,155,0.0,0.0,89,0.00,,-RA,0.00,VWS V14.01,2013-11-23 03:26:00,
2013-11-22 22:31:00,63.5,60.5,30.09,SSE,155,0.0,0.0,90,0.00,,-RA,0.00,VWS V14.01,2013-11-23 03:31:00,
2013-11-22 22:36:00,63.4,60.7,30.08,SSE,155,0.0,0.0,91,0.00,,-RA,0.00,VWS V14.01,2013-11-23 03:36:00,
2013-11-22 22:41:00,63.3,60.6,30.08,SSE,155,0.0,0.0,91,0.00,,-RA,0.00,VWS V14.01,2013-11-23 03:41:00,
2013-11-22 22:46:00,63.2,60.5,30.09,SSE,155,0.0,1.0,91,0.01,,-RA,0.01,VWS V14.01,2013-11-23 03:46:00,
2013-11-22 22:51:00,63.2,60.8,30.09,SSE,155,0.0,0.0,92,0.01,,-RA,0.01,VWS V14.01,2013-11-23 03:51:00,
2013-11-22 22:56:00,63.2,60.8,30.09,SW,229,0.0,1.0,92,0.01,,-RA,0.01,VWS V14.01,2013-11-23 03:56:00,
2013-11-22 23:01:00,63.2,60.8,30.09,SSE,150,0.0,1.0,92,0.01,,-RA,0.01,VWS V14.01,2013-11-23 04:01:00,
2013-11-22 23:11:00,63.1,61.0,30.09,WSW,254,0.0,1.0,93,0.01,,-RA,0.01,VWS V14.01,2013-11-23 04:11:00,
2013-11-22 23:16:00,63.0,61.0,30.09,SW,215,0.0,1.0,93,0.01,,-RA,0.01,VWS V14.01,2013-11-23 04:16:00,
2013-11-22 23:21:00,62.9,60.8,30.09,SW,216,0.0,1.0,93,0.02,,-RA,0.02,VWS V14.01,2013-11-23 04:21:00,
2013-11-22 23:26:00,62.9,61.2,30.08,WSW,237,0.0,3.0,94,0.02,,-RA,0.02,VWS V14.01,2013-11-23 04:26:00,
2013-11-22 23:31:00,62.8,61.0,30.08,SW,236,0.0,0.0,94,0.02,,-RA,0.02,VWS V14.01,2013-11-23 04:31:00,
2013-11-22 23:36:00,62.8,61.0,30.08,WSW,243,0.0,1.0,94,0.02,,-RA,0.02,VWS V14.01,2013-11-23 04:36:00,
2013-11-22 23:41:00,62.7,61.0,30.08,WSW,250,2.0,2.0,94,0.02,,-RA,0.02,VWS V14.01,2013-11-23 04:41:00,
2013-11-22 23:46:00,62.8,61.0,30.08,West,266,0.0,2.0,94,0.02,,-RA,0.02,VWS V14.01,2013-11-23 04:46:00,
2013-11-22 23:51:00,62.7,61.0,30.08,WSW,238,0.0,2.0,94,0.01,,-RA,0.02,VWS V14.01,2013-11-23 04:51:00,
2013-11-22 23:56:00,62.7,61.0,30.08,WSW,238,0.0,3.0,94,0.01,,OVC055,0.02,VWS V14.01,2013-11-23 04:56:00,